Time;durP1;ratioP1;P1;durP2;ratioP2;P2;SDS_P1;SDS_P2;PMS_P1;PMS_P2;Temp;Humidity;BMP_temperature;BMP_pressure;BME280_temperature;BME280_humidity;BME280_pressure;Samples;Min_cycle;Max_cycle;Signal;HPM_P1;HPM_P2
2023/11/11 05:16:38;;;;;;;17.53;3.43;;;;;;;;;;4934861;29;20592;-91
2023/11/11 05:22:31;;;;;;;18.10;3.87;;;;;;;;;;4936191;29;20207;-90
2023/11/11 05:35:03;;;;;;;;;;;;;;;;;;;;;
2023/11/11 05:44:12;;;;;;;20.40;7.60;;;;;;;;;;4809398;29;20203;-90
2023/11/11 05:47:16;;;;;;;;;;;;;;;;;;;;;
2023/11/11 05:50:14;;;;;;;18.73;4.97;;;;;;;;;;4822306;29;20242;-90
2023/11/11 05:52:43;;;;;;;17.53;4.53;;;;;;;;;;4815744;29;20218;-90
2023/11/11 05:55:24;;;;;;;26.20;5.53;;;;;;;;;;4823117;29;20239;-89
2023/11/11 05:58:44;;;;;;;;;;;;;;;;;;;;;
2023/11/11 06:01:12;;;;;;;20.93;4.77;;;;;;;;;;4799375;29;20223;-90
2023/11/11 06:03:39;;;;;;;17.23;4.97;;;;;;;;;;4841361;29;20222;-90
2023/11/11 06:06:09;;;;;;;20.07;5.43;;;;;;;;;;4841382;29;20248;-89
2023/11/11 06:08:39;;;;;;;16.07;5.53;;;;;;;;;;4841432;29;20207;-89
2023/11/11 06:11:07;;;;;;;18.23;5.43;;;;;;;;;;4864433;29;20239;-90
2023/11/11 06:13:37;;;;;;;17.97;5.63;;;;;;;;;;4896079;29;20205;-89
2023/11/11 06:16:09;;;;;;;18.40;5.50;;;;;;;;;;4896617;29;20208;-89
2023/11/11 06:27:58;;;;;;;20.73;6.80;;;;;;;;;;4934641;29;20208;-89
2023/11/11 06:30:42;;;;;;;18.30;7.90;;;;;;;;;;4931321;29;20236;-89
2023/11/11 06:33:09;;;;;;;22.47;8.60;;;;;;;;;;4938173;29;20214;-90
2023/11/11 06:35:46;;;;;;;25.17;8.43;;;;;;;;;;4955247;29;20210;-89
2023/11/11 06:38:29;;;;;;;17.80;8.33;;;;;;;;;;4955303;29;20211;-89
2023/11/11 06:40:59;;;;;;;22.03;8.23;;;;;;;;;;4954067;29;20199;-90
2023/11/11 06:43:36;;;;;;;;;;;;;;;;;;;;;
2023/11/11 06:46:13;;;;;;;19.50;7.23;;;;;;;;;;4955007;29;20191;-90
2023/11/11 06:48:46;;;;;;;19.00;6.70;;;;;;;;;;4955023;29;20285;-90
2023/11/11 06:51:46;;;;;;;18.03;6.90;;;;;;;;;;4955134;28;20238;-90
2023/11/11 06:57:13;;;;;;;20.63;6.87;;;;;;;;;;4918071;29;20205;-89
2023/11/11 06:59:41;;;;;;;16.73;5.60;;;;;;;;;;4919071;29;20212;-89
2023/11/11 07:02:12;;;;;;;15.40;5.83;;;;;;;;;;4919021;29;20208;-90
2023/11/11 07:04:48;;;;;;;20.40;5.47;;;;;;;;;;4918684;29;20711;-89
2023/11/11 07:07:15;;;;;;;21.20;6.20;;;;;;;;;;4918419;29;20208;-89
2023/11/11 07:09:56;;;;;;;20.47;5.50;;;;;;;;;;4918622;29;20197;-90
2023/11/11 07:12:34;;;;;;;21.87;5.93;;;;;;;;;;4918398;29;20790;-90
2023/11/11 07:15:15;;;;;;;19.60;5.77;;;;;;;;;;4918551;29;20290;-90
2023/11/11 07:18:07;;;;;;;23.30;6.40;;;;;;;;;;4919718;29;20208;-91
2023/11/11 07:20:42;;;;;;;18.33;6.50;;;;;;;;;;4909910;29;20713;-90
2023/11/11 07:26:37;;;;;;;21.50;7.37;;;;;;;;;;4932606;29;20207;-90
2023/11/11 07:29:04;;;;;;;24.80;7.83;;;;;;;;;;4923138;29;20204;-90
2023/11/11 07:31:38;;;;;;;25.47;9.17;;;;;;;;;;4938453;29;20339;-91
2023/11/11 07:34:18;;;;;;;26.13;9.53;;;;;;;;;;4942261;29;20207;-91
2023/11/11 07:36:46;;;;;;;32.77;9.90;;;;;;;;;;4958340;29;20199;-91
2023/11/11 07:39:22;;;;;;;25.33;9.33;;;;;;;;;;4958064;29;20201;-90
2023/11/11 07:41:50;;;;;;;23.33;9.20;;;;;;;;;;4958326;29;20207;-90
2023/11/11 07:44:18;;;;;;;27.53;10.47;;;;;;;;;;4958810;29;20626;-90
2023/11/11 07:46:45;;;;;;;29.00;10.13;;;;;;;;;;4958298;29;20660;-90
2023/11/11 07:49:15;;;;;;;30.13;9.90;;;;;;;;;;4958252;29;20213;-91
2023/11/11 07:51:43;;;;;;;22.37;10.10;;;;;;;;;;4957981;29;20256;-92
2023/11/11 07:54:12;;;;;;;26.60;10.40;;;;;;;;;;4945456;29;20213;-95
2023/11/11 07:56:40;;;;;;;22.33;9.90;;;;;;;;;;4939158;29;20204;-92
2023/11/11 07:59:07;;;;;;;18.20;9.27;;;;;;;;;;4938998;29;20283;-93
2023/11/11 08:01:35;;;;;;;23.70;10.43;;;;;;;;;;4938883;29;20235;-94
2023/11/11 08:04:03;;;;;;;23.93;10.20;;;;;;;;;;4938512;29;20287;-94
2023/11/11 08:06:33;;;;;;;22.10;9.10;;;;;;;;;;4939549;29;20212;-94
2023/11/11 08:09:00;;;;;;;17.73;8.57;;;;;;;;;;4939391;29;20229;-95
2023/11/11 08:14:30;;;;;;;17.03;7.73;;;;;;;;;;4938666;29;20238;-94
2023/11/11 08:19:54;;;;;;;20.80;8.20;;;;;;;;;;4953664;29;20204;-96
2023/11/11 08:22:25;;;;;;;16.50;9.47;;;;;;;;;;4949502;29;20207;-96
2023/11/11 08:24:54;;;;;;;16.37;9.10;;;;;;;;;;4940092;29;20196;-93
2023/11/11 08:27:24;;;;;;;17.57;7.93;;;;;;;;;;4939680;29;20697;-92
2023/11/11 08:48:31;;;;;;;13.93;7.50;;;;;;;;;;5060206;23;20230;-94
2023/11/11 08:51:00;;;;;;;13.90;7.32;;;;;;;;;;4977299;28;20234;-94
2023/11/11 08:53:30;;;;;;;14.30;7.43;;;;;;;;;;4977294;28;20240;-95
2023/11/11 09:04:58;;;;;;;15.55;7.43;;;;;;;;;;4911505;28;20242;-92
2023/11/11 09:07:32;;;;;;;15.02;7.38;;;;;;;;;;4987964;28;20198;-96
2023/11/11 09:10:01;;;;;;;18.08;9.40;;;;;;;;;;4991785;28;20193;-95
2023/11/11 09:12:28;;;;;;;16.38;7.75;;;;;;;;;;4981863;28;20682;-94
2023/11/11 09:14:56;;;;;;;15.52;7.72;;;;;;;;;;4981635;28;20213;-93
2023/11/11 09:17:25;;;;;;;13.90;8.70;;;;;;;;;;4980465;28;20202;-93
2023/11/11 09:19:53;;;;;;;14.00;7.82;;;;;;;;;;4977626;28;20235;-95
2023/11/11 09:22:22;;;;;;;13.55;7.15;;;;;;;;;;4972350;28;20856;-93
2023/11/11 09:24:51;;;;;;;14.48;7.07;;;;;;;;;;4977303;28;20229;-94
2023/11/11 09:27:19;;;;;;;15.15;8.00;;;;;;;;;;5006140;23;20234;-93
2023/11/11 09:29:55;;;;;;;15.97;7.27;;;;;;;;;;4979431;28;20194;-91
2023/11/11 09:32:22;;;;;;;22.93;12.47;;;;;;;;;;4976955;28;20230;-92
2023/11/11 09:34:52;;;;;;;24.33;10.37;;;;;;;;;;4977809;28;20663;-92
2023/11/11 09:37:19;;;;;;;17.27;7.90;;;;;;;;;;4976760;28;20285;-92
2023/11/11 09:39:49;;;;;;;15.33;6.80;;;;;;;;;;4976088;28;20199;-91
2023/11/11 09:42:17;;;;;;;15.83;6.70;;;;;;;;;;4975117;28;20209;-92
2023/11/11 09:44:44;;;;;;;15.87;5.97;;;;;;;;;;4975522;28;20206;-92
2023/11/11 09:47:13;;;;;;;15.30;5.83;;;;;;;;;;4975196;28;20195;-92
2023/11/11 09:49:41;;;;;;;14.63;5.77;;;;;;;;;;4975145;28;20694;-93
2023/11/11 09:52:30;;;;;;;14.93;6.73;;;;;;;;;;4975225;28;20226;-92
2023/11/11 09:55:05;;;;;;;16.97;6.17;;;;;;;;;;4960135;28;20207;-91
2023/11/11 09:57:33;;;;;;;13.07;5.07;;;;;;;;;;4974489;28;20652;-91
2023/11/11 10:00:12;;;;;;;12.70;5.57;;;;;;;;;;4972422;28;20214;-93
2023/11/11 10:03:01;;;;;;;13.30;6.20;;;;;;;;;;4959397;28;20699;-92
2023/11/11 10:05:30;;;;;;;14.47;5.10;;;;;;;;;;4970412;28;20213;-92
2023/11/11 10:07:58;;;;;;;16.40;5.45;;;;;;;;;;4975293;28;20206;-92
2023/11/11 10:10:29;;;;;;;12.40;5.70;;;;;;;;;;4975326;28;20214;-93
2023/11/11 10:12:56;;;;;;;13.38;5.35;;;;;;;;;;4975015;28;20272;-93
2023/11/11 10:15:26;;;;;;;15.85;6.82;;;;;;;;;;4975510;28;20199;-93
2023/11/11 10:18:06;;;;;;;15.93;6.32;;;;;;;;;;4965905;28;20226;-92
2023/11/11 10:20:38;;;;;;;15.43;6.13;;;;;;;;;;4961091;29;20262;-95
2023/11/11 10:23:05;;;;;;;12.50;5.68;;;;;;;;;;4956333;29;20199;-92
2023/11/11 10:25:34;;;;;;;13.82;5.55;;;;;;;;;;4955488;29;20282;-93
2023/11/11 10:30:42;;;;;;;15.65;5.78;;;;;;;;;;4976676;28;20203;-95
2023/11/11 10:33:12;;;;;;;11.55;5.22;;;;;;;;;;4959012;28;20206;-92
2023/11/11 10:35:42;;;;;;;12.60;5.70;;;;;;;;;;4977252;28;20206;-96
2023/11/11 10:38:11;;;;;;;14.75;6.32;;;;;;;;;;4969401;28;20306;-96
2023/11/11 10:43:52;;;;;;;14.70;6.40;;;;;;;;;;4920085;29;20324;-93
2023/11/11 10:46:21;;;;;;;16.40;6.10;;;;;;;;;;4922695;29;20625;-96
2023/11/11 10:51:38;;;;;;;11.45;5.38;;;;;;;;;;4928211;29;20228;-96
2023/11/11 11:02:48;;;;;;;18.47;6.43;;;;;;;;;;4923806;29;20250;-96
2023/11/11 11:20:24;;;;;;;13.33;6.70;;;;;;;;;;4977814;28;20199;-96
2023/11/11 11:28:35;;;;;;;16.33;6.77;;;;;;;;;;5251099;23;20293;-91
2023/11/11 11:38:59;;;;;;;14.87;5.37;;;;;;;;;;4935513;29;20252;-95
2023/11/11 11:41:27;;;;;;;16.07;5.60;;;;;;;;;;4976396;28;20195;-95
2023/11/11 11:44:02;;;;;;;11.97;4.60;;;;;;;;;;4990270;28;20210;-95
2023/11/11 11:46:30;;;;;;;17.73;5.73;;;;;;;;;;4984997;28;20202;-94
2023/11/11 11:49:11;;;;;;;14.27;5.03;;;;;;;;;;4976645;28;20755;-94
2023/11/11 11:52:02;;;;;;;18.00;5.50;;;;;;;;;;4982669;28;20226;-91
2023/11/11 11:54:31;;;;;;;15.80;4.97;;;;;;;;;;4981953;28;20206;-96
2023/11/11 11:57:05;;;;;;;17.37;5.33;;;;;;;;;;4982461;28;20195;-93
2023/11/11 11:59:36;;;;;;;14.53;5.23;;;;;;;;;;4981204;28;20203;-93
2023/11/11 12:05:22;;;;;;;15.53;5.57;;;;;;;;;;4978296;28;20561;-94
2023/11/11 12:07:54;;;;;;;19.43;5.70;;;;;;;;;;4967324;28;20293;-91
2023/11/11 12:10:21;;;;;;;12.60;5.73;;;;;;;;;;4978169;28;20262;-95
2023/11/11 12:12:52;;;;;;;12.93;5.87;;;;;;;;;;4980612;28;20235;-93
2023/11/11 12:15:26;;;;;;;15.30;6.13;;;;;;;;;;4979554;28;20232;-94
2023/11/11 12:18:11;;;;;;;13.93;6.20;;;;;;;;;;4960558;28;21053;-94
2023/11/11 12:20:43;;;;;;;12.97;6.03;;;;;;;;;;4962135;28;20220;-93
2023/11/11 12:23:12;;;;;;;13.77;5.40;;;;;;;;;;4977877;28;20199;-95
2023/11/11 12:25:41;;;;;;;14.03;5.40;;;;;;;;;;4980686;28;20253;-94
2023/11/11 12:28:08;;;;;;;13.47;5.70;;;;;;;;;;4980157;28;20242;-95
2023/11/11 12:30:43;;;;;;;15.87;5.93;;;;;;;;;;4980014;28;20210;-95
2023/11/11 12:33:26;;;;;;;18.23;7.00;;;;;;;;;;4979775;28;20702;-94
2023/11/11 12:35:56;;;;;;;15.90;6.33;;;;;;;;;;4967887;28;20217;-95
2023/11/11 12:38:28;;;;;;;18.23;6.43;;;;;;;;;;4959820;29;20271;-95
2023/11/11 12:40:56;;;;;;;13.53;6.33;;;;;;;;;;4950464;29;20215;-94
2023/11/11 12:43:24;;;;;;;13.80;7.63;;;;;;;;;;4944084;29;20211;-93
2023/11/11 12:45:54;;;;;;;16.77;5.87;;;;;;;;;;4956162;29;20204;-94
2023/11/11 12:48:23;;;;;;;16.47;6.47;;;;;;;;;;4957207;29;20200;-92
2023/11/11 12:50:53;;;;;;;19.87;6.10;;;;;;;;;;4954831;28;20203;-94
2023/11/11 12:53:20;;;;;;;13.90;5.67;;;;;;;;;;4952053;29;20228;-94
2023/11/11 12:56:03;;;;;;;14.40;5.23;;;;;;;;;;4948944;29;20204;-94
2023/11/11 12:58:30;;;;;;;16.83;4.80;;;;;;;;;;4967102;29;20211;-93
2023/11/11 13:01:04;;;;;;;11.17;4.03;;;;;;;;;;4952155;28;20258;-94
2023/11/11 13:03:33;;;;;;;13.23;4.30;;;;;;;;;;4961185;29;20274;-94
2023/11/11 13:06:03;;;;;;;11.37;4.23;;;;;;;;;;4961140;29;20207;-95
2023/11/11 13:08:30;;;;;;;12.97;4.30;;;;;;;;;;4960401;29;20205;-93
2023/11/11 13:11:00;;;;;;;11.07;4.10;;;;;;;;;;4961052;29;20195;-94
2023/11/11 13:13:29;;;;;;;12.03;3.93;;;;;;;;;;4961209;29;20266;-94
2023/11/11 13:15:59;;;;;;;14.87;4.23;;;;;;;;;;4960046;29;20656;-94
2023/11/11 13:18:27;;;;;;;13.10;3.70;;;;;;;;;;4940521;29;20291;-94
2023/11/11 13:20:57;;;;;;;16.00;4.13;;;;;;;;;;4944256;28;20211;-95
2023/11/11 13:23:29;;;;;;;14.13;4.00;;;;;;;;;;4979906;28;20264;-95
2023/11/11 13:25:57;;;;;;;15.93;3.67;;;;;;;;;;4971847;28;20629;-94
2023/11/11 13:28:28;;;;;;;12.97;4.07;;;;;;;;;;4961068;29;20214;-94
2023/11/11 13:30:57;;;;;;;12.57;3.83;;;;;;;;;;4961789;29;20214;-95
2023/11/11 13:33:24;;;;;;;16.63;4.07;;;;;;;;;;4961786;28;20235;-95
2023/11/11 13:35:54;;;;;;;14.83;4.20;;;;;;;;;;4961282;28;20211;-94
2023/11/11 13:38:22;;;;;;;16.13;5.37;;;;;;;;;;4978597;28;20651;-94
2023/11/11 13:40:52;;;;;;;15.83;5.63;;;;;;;;;;4980324;28;20351;-94
2023/11/11 13:43:21;;;;;;;10.47;3.97;;;;;;;;;;4968835;28;20639;-94
2023/11/11 13:45:50;;;;;;;14.10;3.70;;;;;;;;;;4965245;28;20207;-94
2023/11/11 13:48:18;;;;;;;14.23;4.00;;;;;;;;;;4972049;28;20631;-94
2023/11/11 13:50:45;;;;;;;17.53;3.90;;;;;;;;;;4968068;28;20203;-93
2023/11/11 13:53:13;;;;;;;16.17;4.53;;;;;;;;;;4968296;28;20278;-95
2023/11/11 13:55:41;;;;;;;15.20;3.47;;;;;;;;;;4970327;28;20202;-94
2023/11/11 13:58:08;;;;;;;13.77;3.60;;;;;;;;;;4970086;28;20230;-93
2023/11/11 14:00:38;;;;;;;16.60;3.63;;;;;;;;;;4966077;28;20214;-94
2023/11/11 14:03:07;;;;;;;14.87;4.57;;;;;;;;;;4978602;28;20289;-93
2023/11/11 14:05:36;;;;;;;15.60;5.07;;;;;;;;;;4964638;28;20208;-93
2023/11/11 14:08:11;;;;;;;12.43;3.67;;;;;;;;;;4960863;29;20235;-94
2023/11/11 14:10:39;;;;;;;13.10;3.50;;;;;;;;;;4961785;28;20206;-94
2023/11/11 14:13:07;;;;;;;15.33;4.07;;;;;;;;;;4978270;28;20230;-94
2023/11/11 14:15:38;;;;;;;16.17;4.00;;;;;;;;;;4981208;28;20210;-93
2023/11/11 14:18:11;;;;;;;14.53;4.73;;;;;;;;;;4985261;28;20308;-94
2023/11/11 14:20:39;;;;;;;13.83;4.00;;;;;;;;;;4965914;28;20298;-93
2023/11/11 14:23:06;;;;;;;14.77;4.63;;;;;;;;;;4979243;28;20210;-94
2023/11/11 14:25:36;;;;;;;11.87;3.63;;;;;;;;;;4980145;28;20202;-94
2023/11/11 14:28:07;;;;;;;12.47;3.40;;;;;;;;;;4981273;28;20206;-93
2023/11/11 14:30:34;;;;;;;16.03;3.90;;;;;;;;;;4971386;28;20209;-93
2023/11/11 14:33:05;;;;;;;16.33;4.00;;;;;;;;;;4958885;29;20227;-94
2023/11/11 14:35:34;;;;;;;14.27;3.70;;;;;;;;;;4973346;28;20208;-94
2023/11/11 14:38:03;;;;;;;12.30;3.70;;;;;;;;;;4980145;28;20265;-94
2023/11/11 14:40:31;;;;;;;18.00;4.30;;;;;;;;;;4979868;28;20206;-94
2023/11/11 14:42:58;;;;;;;13.20;3.73;;;;;;;;;;4979776;28;20198;-94
2023/11/11 14:45:27;;;;;;;11.00;3.67;;;;;;;;;;4984332;28;20202;-93
2023/11/11 14:47:55;;;;;;;12.77;4.20;;;;;;;;;;4985266;28;20289;-94
2023/11/11 14:50:29;;;;;;;17.40;5.10;;;;;;;;;;4985178;28;20205;-94
2023/11/11 14:52:59;;;;;;;18.60;4.20;;;;;;;;;;4984984;28;20278;-94
2023/11/11 14:55:29;;;;;;;10.90;3.87;;;;;;;;;;4995820;28;20229;-93
2023/11/11 14:57:56;;;;;;;15.27;3.60;;;;;;;;;;4999845;28;20205;-94
2023/11/11 15:00:24;;;;;;;8.73;3.17;;;;;;;;;;4999319;28;20252;-95
2023/11/11 15:02:55;;;;;;;11.20;3.40;;;;;;;;;;4999092;28;20205;-93
2023/11/11 15:05:23;;;;;;;12.27;3.57;;;;;;;;;;5000068;28;20278;-94
2023/11/11 15:07:51;;;;;;;13.83;3.73;;;;;;;;;;4999891;28;20252;-94
2023/11/11 15:10:21;;;;;;;13.73;3.23;;;;;;;;;;4999184;28;20619;-93
2023/11/11 15:12:49;;;;;;;13.53;3.87;;;;;;;;;;4998432;28;20253;-94
2023/11/11 15:15:17;;;;;;;13.90;3.83;;;;;;;;;;5001600;28;20233;-94
2023/11/11 15:17:45;;;;;;;12.37;3.07;;;;;;;;;;5001395;28;20284;-94
2023/11/11 15:20:14;;;;;;;18.40;3.80;;;;;;;;;;5001262;28;20201;-94
2023/11/11 15:22:45;;;;;;;15.80;3.43;;;;;;;;;;5003011;28;20221;-93
2023/11/11 15:25:14;;;;;;;14.43;3.70;;;;;;;;;;5004062;28;20225;-94
2023/11/11 15:27:43;;;;;;;11.83;3.67;;;;;;;;;;5003086;28;20206;-93
2023/11/11 15:30:14;;;;;;;16.03;3.43;;;;;;;;;;5002312;28;20233;-94
2023/11/11 15:32:42;;;;;;;15.93;4.17;;;;;;;;;;5000374;28;20249;-94
2023/11/11 15:35:10;;;;;;;13.67;3.63;;;;;;;;;;4987993;28;20640;-92
2023/11/11 15:37:38;;;;;;;18.47;3.93;;;;;;;;;;4979924;28;20304;-94
2023/11/11 15:40:08;;;;;;;16.03;3.43;;;;;;;;;;4980073;28;20302;-94
2023/11/11 15:42:35;;;;;;;13.73;4.20;;;;;;;;;;4980036;28;20535;-93
2023/11/11 15:45:06;;;;;;;13.57;3.00;;;;;;;;;;4980427;28;20229;-94
2023/11/11 15:47:33;;;;;;;16.90;3.70;;;;;;;;;;4979787;28;20209;-93
2023/11/11 15:50:00;;;;;;;11.40;3.97;;;;;;;;;;4979775;28;20225;-93
2023/11/11 15:52:28;;;;;;;13.27;3.80;;;;;;;;;;4979766;28;20285;-94
2023/11/11 15:54:56;;;;;;;14.97;3.73;;;;;;;;;;4979612;28;20206;-94
2023/11/11 15:57:23;;;;;;;12.43;3.57;;;;;;;;;;4981052;28;20209;-94
2023/11/11 15:59:53;;;;;;;15.77;4.73;;;;;;;;;;4984327;28;20199;-91
2023/11/11 16:02:22;;;;;;;11.67;3.93;;;;;;;;;;4979095;28;20226;-92
2023/11/11 16:04:49;;;;;;;15.67;5.17;;;;;;;;;;4976918;28;21034;-92
2023/11/11 16:07:17;;;;;;;15.83;5.53;;;;;;;;;;4988112;28;20240;-93
2023/11/11 16:09:44;;;;;;;19.50;6.80;;;;;;;;;;4997919;28;20544;-94
2023/11/11 16:12:13;;;;;;;21.70;7.10;;;;;;;;;;4997773;28;20690;-89
2023/11/11 16:14:40;;;;;;;19.00;5.73;;;;;;;;;;4967666;28;20206;-89
2023/11/11 16:17:09;;;;;;;19.37;5.37;;;;;;;;;;4958283;29;20211;-89
2023/11/11 16:19:44;;;;;;;16.23;4.33;;;;;;;;;;4958357;29;20210;-88
2023/11/11 16:22:11;;;;;;;15.83;4.43;;;;;;;;;;4964604;28;20723;-89
2023/11/11 16:24:38;;;;;;;16.97;4.27;;;;;;;;;;4976260;28;20686;-88
2023/11/11 16:27:07;;;;;;;16.47;3.70;;;;;;;;;;4977204;28;20206;-89
2023/11/11 16:29:34;;;;;;;13.93;3.57;;;;;;;;;;4977796;28;20207;-88
2023/11/11 16:32:01;;;;;;;17.83;4.80;;;;;;;;;;4977268;28;20194;-89
2023/11/11 16:34:29;;;;;;;18.20;4.70;;;;;;;;;;4975746;28;20765;-89
2023/11/11 16:36:59;;;;;;;15.63;5.30;;;;;;;;;;4977480;28;20234;-88
2023/11/11 16:39:26;;;;;;;16.57;5.00;;;;;;;;;;4977812;28;20253;-89
2023/11/11 16:41:55;;;;;;;14.37;4.20;;;;;;;;;;4977367;28;20210;-89
2023/11/11 16:44:22;;;;;;;13.43;4.83;;;;;;;;;;4977394;28;20202;-90
2023/11/11 16:46:49;;;;;;;13.73;5.77;;;;;;;;;;4977273;28;20653;-89
2023/11/11 16:49:16;;;;;;;19.60;6.13;;;;;;;;;;4976659;28;20203;-88
2023/11/11 16:51:44;;;;;;;14.90;5.20;;;;;;;;;;4973816;28;20203;-90
2023/11/11 16:54:15;;;;;;;20.50;5.27;;;;;;;;;;4981685;28;20234;-89
2023/11/11 16:56:48;;;;;;;21.43;5.13;;;;;;;;;;4980234;28;20651;-89
2023/11/11 16:59:20;;;;;;;14.40;4.73;;;;;;;;;;4978102;28;20656;-87
2023/11/11 17:01:49;;;;;;;18.13;5.00;;;;;;;;;;4975912;28;20202;-88
2023/11/11 17:04:20;;;;;;;17.43;4.97;;;;;;;;;;4976254;28;20213;-88
2023/11/11 17:06:47;;;;;;;16.73;5.50;;;;;;;;;;4975392;28;20198;-90
2023/11/11 17:09:20;;;;;;;17.63;5.47;;;;;;;;;;4976364;28;20218;-88
2023/11/11 17:11:54;;;;;;;19.63;7.07;;;;;;;;;;4975792;28;20199;-87
2023/11/11 17:14:27;;;;;;;19.03;7.30;;;;;;;;;;4970583;28;20234;-87
2023/11/11 17:16:56;;;;;;;16.67;6.93;;;;;;;;;;4955660;29;20206;-89
2023/11/11 17:19:36;;;;;;;18.40;6.80;;;;;;;;;;4956083;29;20203;-88
2023/11/11 17:22:05;;;;;;;17.97;6.30;;;;;;;;;;4964393;28;20199;-85
2023/11/11 17:24:35;;;;;;;19.30;6.07;;;;;;;;;;4956139;29;20260;-85
2023/11/11 17:27:03;;;;;;;19.60;6.30;;;;;;;;;;4956211;29;20203;-87
2023/11/11 17:29:42;;;;;;;22.97;6.47;;;;;;;;;;4960644;28;20202;-86
2023/11/11 17:32:10;;;;;;;24.00;8.60;;;;;;;;;;4976174;28;20198;-88
2023/11/11 17:34:37;;;;;;;17.80;7.00;;;;;;;;;;4975152;28;20238;-86
2023/11/11 17:37:04;;;;;;;17.77;6.40;;;;;;;;;;4975286;28;20234;-87
2023/11/11 17:39:33;;;;;;;21.27;6.83;;;;;;;;;;4970798;28;20669;-88
2023/11/11 17:42:01;;;;;;;16.03;5.97;;;;;;;;;;4955716;28;20548;-87
2023/11/11 17:44:28;;;;;;;14.43;5.70;;;;;;;;;;4956120;29;20270;-87
2023/11/11 17:46:55;;;;;;;18.43;5.10;;;;;;;;;;4956705;29;20206;-87
2023/11/11 17:49:22;;;;;;;19.00;6.20;;;;;;;;;;4955800;28;20687;-87
2023/11/11 17:51:50;;;;;;;20.60;6.17;;;;;;;;;;4955700;29;20207;-88
2023/11/11 17:54:17;;;;;;;18.63;5.30;;;;;;;;;;4956080;28;20964;-87
2023/11/11 17:56:48;;;;;;;19.67;5.63;;;;;;;;;;4975022;28;20261;-88
2023/11/11 17:59:16;;;;;;;19.97;5.20;;;;;;;;;;4975128;28;20739;-87
2023/11/11 18:01:43;;;;;;;20.23;5.77;;;;;;;;;;4974946;28;20634;-87
2023/11/11 18:04:13;;;;;;;17.03;5.80;;;;;;;;;;4974297;28;20265;-88
2023/11/11 18:06:41;;;;;;;22.27;6.30;;;;;;;;;;4967062;28;20257;-89
2023/11/11 18:09:11;;;;;;;22.30;6.10;;;;;;;;;;4974968;28;20558;-87
2023/11/11 18:11:39;;;;;;;17.03;6.30;;;;;;;;;;4974444;28;20203;-86
2023/11/11 18:14:18;;;;;;;17.43;5.57;;;;;;;;;;4974706;28;20823;-88
2023/11/11 18:16:45;;;;;;;17.87;5.80;;;;;;;;;;4983756;28;20210;-86
2023/11/11 18:19:15;;;;;;;15.20;5.33;;;;;;;;;;4972935;28;20282;-87
2023/11/11 18:21:53;;;;;;;19.10;6.63;;;;;;;;;;4972873;28;20213;-88
2023/11/11 18:24:20;;;;;;;16.50;5.97;;;;;;;;;;4973093;28;20209;-87
2023/11/11 18:26:48;;;;;;;20.43;5.40;;;;;;;;;;4973604;28;20195;-89
2023/11/11 18:29:18;;;;;;;14.97;5.13;;;;;;;;;;4973082;28;20233;-88
2023/11/11 18:31:46;;;;;;;18.63;5.57;;;;;;;;;;4973130;28;20210;-86
2023/11/11 18:34:14;;;;;;;16.13;5.63;;;;;;;;;;4973171;28;20284;-88
2023/11/11 18:36:41;;;;;;;21.43;5.47;;;;;;;;;;4973122;28;20321;-88
2023/11/11 18:39:08;;;;;;;20.20;6.00;;;;;;;;;;4972966;28;20214;-88
2023/11/11 18:41:36;;;;;;;19.17;6.67;;;;;;;;;;4972312;28;20217;-89
2023/11/11 18:44:04;;;;;;;21.50;6.53;;;;;;;;;;4972645;28;20210;-88
2023/11/11 18:46:33;;;;;;;18.93;5.70;;;;;;;;;;4973029;28;20202;-89
2023/11/11 18:49:00;;;;;;;16.67;5.70;;;;;;;;;;4976304;28;20273;-89
2023/11/11 18:51:28;;;;;;;18.63;5.80;;;;;;;;;;4977488;28;20932;-87
2023/11/11 18:53:55;;;;;;;20.50;6.07;;;;;;;;;;4979081;28;20237;-88
2023/11/11 18:56:22;;;;;;;17.53;5.37;;;;;;;;;;4979677;28;20206;-88
2023/11/11 18:58:49;;;;;;;16.30;5.07;;;;;;;;;;4981344;28;20202;-88
2023/11/11 19:01:17;;;;;;;14.60;4.97;;;;;;;;;;4980450;28;20288;-88
2023/11/11 19:03:45;;;;;;;15.67;5.13;;;;;;;;;;4979218;28;20233;-88
2023/11/11 19:06:13;;;;;;;15.73;5.27;;;;;;;;;;4977220;28;20202;-88
2023/11/11 19:08:40;;;;;;;15.37;4.40;;;;;;;;;;4976952;28;20297;-88
2023/11/11 19:11:07;;;;;;;16.33;5.00;;;;;;;;;;4977257;28;20286;-88
2023/11/11 19:13:35;;;;;;;18.77;5.83;;;;;;;;;;4976696;28;20230;-88
2023/11/11 19:16:02;;;;;;;13.47;3.67;;;;;;;;;;4976620;28;20207;-87
2023/11/11 19:18:30;;;;;;;19.33;4.93;;;;;;;;;;4617815;28;9999855;-89
2023/11/11 19:20:58;;;;;;;16.30;4.17;;;;;;;;;;4971037;28;20241;-88
2023/11/11 19:23:27;;;;;;;15.43;4.03;;;;;;;;;;4976680;28;20206;-88
2023/11/11 19:25:54;;;;;;;16.23;4.83;;;;;;;;;;4975869;28;20249;-88
2023/11/11 19:28:21;;;;;;;17.33;4.23;;;;;;;;;;4976191;28;20308;-88
2023/11/11 19:30:49;;;;;;;20.03;4.90;;;;;;;;;;4976398;28;20285;-88
2023/11/11 19:33:16;;;;;;;14.83;4.43;;;;;;;;;;4975881;28;20202;-86
2023/11/11 19:35:43;;;;;;;19.07;3.70;;;;;;;;;;4992563;28;20297;-88
2023/11/11 19:38:12;;;;;;;17.97;5.10;;;;;;;;;;4995356;28;20245;-86
2023/11/11 19:40:39;;;;;;;12.53;4.23;;;;;;;;;;4995270;28;20749;-86
2023/11/11 19:43:07;;;;;;;14.40;5.40;;;;;;;;;;4995534;28;20252;-87
2023/11/11 19:45:35;;;;;;;16.97;5.17;;;;;;;;;;4995142;28;20743;-87
2023/11/11 19:50:43;;;;;;;14.60;4.73;;;;;;;;;;4996189;28;20538;-87
2023/11/11 19:53:13;;;;;;;16.67;4.90;;;;;;;;;;4975417;28;20250;-89
2023/11/11 19:55:40;;;;;;;15.37;4.73;;;;;;;;;;4959360;28;20704;-87
2023/11/11 19:58:07;;;;;;;16.53;4.97;;;;;;;;;;4962857;28;20207;-87
2023/11/11 20:00:35;;;;;;;16.73;4.67;;;;;;;;;;4968826;28;20253;-88
2023/11/11 20:03:02;;;;;;;24.90;5.20;;;;;;;;;;4967499;28;20199;-88
2023/11/11 20:05:29;;;;;;;16.17;4.27;;;;;;;;;;4962779;28;20251;-88
2023/11/11 20:07:57;;;;;;;15.80;4.47;;;;;;;;;;4972618;28;21531;-87
2023/11/11 20:10:26;;;;;;;19.67;4.63;;;;;;;;;;4956214;29;20207;-89
2023/11/11 20:12:56;;;;;;;20.07;4.50;;;;;;;;;;4961432;28;20192;-89
2023/11/11 20:15:23;;;;;;;14.47;4.47;;;;;;;;;;4967145;28;20234;-90
2023/11/11 20:17:51;;;;;;;19.77;4.43;;;;;;;;;;4962637;28;20310;-88
2023/11/11 20:20:18;;;;;;;14.33;4.40;;;;;;;;;;4972840;28;20202;-88
2023/11/11 20:22:45;;;;;;;18.73;5.00;;;;;;;;;;4968711;28;20622;-89
2023/11/11 20:25:12;;;;;;;16.40;4.70;;;;;;;;;;4966238;28;20206;-88
2023/11/11 20:30:37;;;;;;;11.77;3.90;;;;;;;;;;4963475;28;20294;-89
2023/11/11 20:33:06;;;;;;;15.17;4.10;;;;;;;;;;4967867;28;20570;-87
2023/11/11 20:35:34;;;;;;;12.83;4.37;;;;;;;;;;4975584;28;20238;-89
2023/11/11 20:38:02;;;;;;;16.57;4.33;;;;;;;;;;4975595;28;20234;-88
2023/11/11 20:40:29;;;;;;;20.30;4.40;;;;;;;;;;4979805;28;20201;-91
2023/11/11 20:42:56;;;;;;;17.33;4.20;;;;;;;;;;4978391;28;20207;-90
2023/11/11 20:45:24;;;;;;;22.07;4.70;;;;;;;;;;4982229;28;20198;-90
2023/11/11 20:47:53;;;;;;;15.00;4.33;;;;;;;;;;4972815;28;20206;-91
2023/11/11 20:50:20;;;;;;;20.60;4.33;;;;;;;;;;4967068;28;20660;-91
2023/11/11 20:52:50;;;;;;;21.43;4.03;;;;;;;;;;4974949;28;20202;-88
2023/11/11 20:55:19;;;;;;;18.40;3.80;;;;;;;;;;4980132;28;20321;-88
2023/11/11 20:57:46;;;;;;;14.43;3.70;;;;;;;;;;4971761;28;20214;-90
2023/11/11 21:00:14;;;;;;;17.53;3.90;;;;;;;;;;4956839;29;20199;-89
2023/11/11 21:02:47;;;;;;;19.30;5.20;;;;;;;;;;4958239;29;20234;-91
2023/11/11 21:05:17;;;;;;;18.17;4.43;;;;;;;;;;4971641;28;20205;-89
2023/11/11 21:07:45;;;;;;;14.23;4.13;;;;;;;;;;4974880;28;20266;-90
2023/11/11 21:10:15;;;;;;;16.87;4.37;;;;;;;;;;4971680;28;20218;-92
2023/11/11 21:12:43;;;;;;;15.63;4.80;;;;;;;;;;4974156;28;20559;-93
2023/11/11 21:15:14;;;;;;;17.77;4.93;;;;;;;;;;4956078;29;20519;-91
2023/11/11 21:17:42;;;;;;;19.10;4.87;;;;;;;;;;4960499;28;20601;-91
2023/11/11 21:20:10;;;;;;;17.97;5.53;;;;;;;;;;4964644;28;20266;-93
2023/11/11 21:22:41;;;;;;;14.63;4.47;;;;;;;;;;4972976;28;20210;-92
2023/11/11 21:25:10;;;;;;;19.77;5.10;;;;;;;;;;4975479;28;20241;-91
2023/11/11 21:27:37;;;;;;;19.00;4.73;;;;;;;;;;4974474;28;20735;-92
2023/11/11 21:30:08;;;;;;;20.43;4.93;;;;;;;;;;4974972;28;20739;-92
2023/11/11 21:32:35;;;;;;;14.37;4.50;;;;;;;;;;4974380;28;20206;-90
2023/11/11 21:35:03;;;;;;;17.93;4.77;;;;;;;;;;4985731;28;20659;-91
2023/11/11 21:37:34;;;;;;;21.73;4.83;;;;;;;;;;4994479;28;20718;-90
2023/11/11 21:40:04;;;;;;;20.03;4.73;;;;;;;;;;4994085;28;20193;-91
2023/11/11 21:42:32;;;;;;;19.77;4.73;;;;;;;;;;4993528;28;20256;-89
2023/11/11 21:45:02;;;;;;;17.13;4.60;;;;;;;;;;4963300;28;20214;-90
2023/11/11 21:47:29;;;;;;;14.57;5.00;;;;;;;;;;4954984;29;20208;-90
2023/11/11 21:49:59;;;;;;;13.80;5.07;;;;;;;;;;4972568;28;20206;-90
2023/11/11 21:52:26;;;;;;;14.60;4.20;;;;;;;;;;4961359;28;20877;-89
2023/11/11 21:54:53;;;;;;;13.20;4.37;;;;;;;;;;4954378;29;20266;-87
2023/11/11 21:57:22;;;;;;;16.80;4.83;;;;;;;;;;4954085;29;20277;-88
2023/11/11 21:59:49;;;;;;;11.87;4.40;;;;;;;;;;4970471;28;20214;-87
2023/11/11 22:02:16;;;;;;;15.80;4.13;;;;;;;;;;4954935;29;20251;-87
2023/11/11 22:04:44;;;;;;;14.70;4.57;;;;;;;;;;4955722;29;20254;-87
2023/11/11 22:07:15;;;;;;;12.63;3.73;;;;;;;;;;4955607;28;20211;-88
2023/11/11 22:09:47;;;;;;;19.07;4.60;;;;;;;;;;4974376;28;20667;-86